Aviation Digital Data Service (ADDS)

Output produced by METARs form (1425 UTC 10 July 2020)
found at http://www.aviationweather.gov/metar/data/
 
KRNH 101120Z 1012/1112 29004KT P6SM SKC 
     FM101600 30012G20KT P6SM FEW050 SCT250 
     FM110100 30003KT P6SM SCT110